Time;durP1;ratioP1;P1;durP2;ratioP2;P2;SDS_P1;SDS_P2;PMS_P1;PMS_P2;Temp;Humidity;BMP_temperature;BMP_pressure;BME280_temperature;BME280_humidity;BME280_pressure;Samples;Min_cycle;Max_cycle;Signal;HPM_P1;HPM_P2
2022/01/23 00:00:37;;;;;;;29.40;11.70;;;;;;;-2.02;71.86;99666.90;106086;1274;107817;-72
2022/01/23 00:03:18;;;;;;;31.30;12.10;;;;;;;-2.01;71.96;99666.89;106054;1274;99323;-70
2022/01/23 00:05:49;;;;;;;31.40;11.80;;;;;;;-2.02;71.92;99664.82;106035;1274;99913;-69
2022/01/23 00:08:21;;;;;;;33.20;11.90;;;;;;;-2.02;72.10;99664.13;106116;1274;113191;-69
2022/01/23 00:10:52;;;;;;;30.20;11.00;;;;;;;-2.03;71.97;99669.17;106123;1271;100722;-71
2022/01/23 00:13:29;;;;;;;35.70;13.00;;;;;;;-2.07;71.90;99660.02;106086;1271;107819;-73
2022/01/23 00:18:43;;;;;;;31.20;11.30;;;;;;;-2.13;71.83;99664.42;106183;1273;96635;-71
2022/01/23 00:21:13;;;;;;;33.30;11.90;;;;;;;-2.13;71.91;99663.20;106121;1274;113854;-71
2022/01/23 00:31:41;;;;;;;30.30;12.50;;;;;;;-2.15;71.97;99653.66;106213;1274;99316;-73
2022/01/23 00:34:09;;;;;;;27.90;12.20;;;;;;;-2.15;72.19;99657.33;105994;1274;112774;-72
2022/01/23 00:36:37;;;;;;;31.80;10.80;;;;;;;-2.17;71.97;99659.77;106072;1274;99064;-72
2022/01/23 00:39:05;;;;;;;29.60;10.40;;;;;;;-2.18;71.86;99658.40;106048;1274;107736;-71
2022/01/23 00:41:33;;;;;;;28.10;10.30;;;;;;;-2.18;72.01;99660.83;105953;1273;99970;-70
2022/01/23 00:44:01;;;;;;;29.20;10.50;;;;;;;-2.19;71.91;99660.83;106002;1274;97303;-70
2022/01/23 00:46:38;;;;;;;29.60;11.80;;;;;;;-2.20;72.05;99662.94;106182;1274;112846;-71
2022/01/23 00:51:40;;;;;;;28.90;11.50;;;;;;;-2.21;72.18;99665.90;106067;1274;107732;-73
2022/01/23 00:54:12;;;;;;;31.20;11.30;;;;;;;-2.22;72.22;99664.70;106037;1274;96539;-72
2022/01/23 00:56:40;;;;;;;29.30;10.80;;;;;;;-2.25;72.06;99669.76;106077;1274;98200;-72
2022/01/23 00:59:08;;;;;;;29.20;11.10;;;;;;;-2.26;72.21;99665.97;105993;1274;113977;-71
2022/01/23 01:01:36;;;;;;;28.70;10.80;;;;;;;-2.26;72.14;99676.23;106098;1274;97728;-71
2022/01/23 01:04:07;;;;;;;29.30;11.60;;;;;;;-2.26;72.25;99677.96;106111;1274;106881;-71
2022/01/23 01:06:38;;;;;;;27.80;10.10;;;;;;;-2.29;72.59;99673.28;106101;1274;99300;-72
2022/01/23 01:09:08;;;;;;;33.10;12.30;;;;;;;-2.30;72.41;99670.34;106089;1274;99265;-71
2022/01/23 01:11:56;;;;;;;30.60;10.60;;;;;;;-2.29;72.44;99667.73;106131;1273;112761;-71
2022/01/23 01:17:40;;;;;;;29.00;9.90;;;;;;;-2.30;72.36;99661.83;106069;1272;107882;-70
2022/01/23 01:31:27;;;;;;;35.10;12.60;;;;;;;-2.30;72.23;99644.64;106084;1274;107738;-70
2022/01/23 01:36:45;;;;;;;36.60;12.80;;;;;;;-2.29;72.09;99632.27;106122;1274;96617;-72
2022/01/23 01:39:27;;;;;;;33.10;11.50;;;;;;;-2.29;72.11;99625.70;106176;1273;113100;-70
2022/01/23 01:41:59;;;;;;;28.70;11.20;;;;;;;-2.31;72.39;99618.59;106177;1271;99229;-71
2022/01/23 01:44:27;;;;;;;29.50;12.20;;;;;;;-2.34;72.35;99621.73;106101;1271;107697;-70
2022/01/23 01:46:55;;;;;;;31.10;12.00;;;;;;;-2.36;72.16;99624.88;106051;1273;99125;-71
2022/01/23 01:49:29;;;;;;;36.60;12.10;;;;;;;-2.37;72.19;99632.02;105913;1274;96773;-71
2022/01/23 01:52:01;;;;;;;29.60;11.00;;;;;;;-2.40;72.43;99631.52;106023;1274;112779;-71
2022/01/23 01:54:32;;;;;;;28.20;10.80;;;;;;;-2.41;72.46;99631.88;106010;1274;99127;-69
2022/01/23 01:57:08;;;;;;;32.30;11.70;;;;;;;-2.41;72.26;99637.79;105986;1274;107529;-71
2022/01/23 02:10:45;;;;;;;30.00;11.20;;;;;;;-2.43;72.12;99643.36;106084;1271;107739;-70
2022/01/23 02:13:19;;;;;;;31.20;11.20;;;;;;;-2.43;72.36;99640.41;106089;1274;99271;-71
2022/01/23 02:52:13;;;;;;;30.10;9.90;;;;;;;-2.49;72.68;99648.32;106120;1274;107716;-71
2022/01/23 02:54:57;;;;;;;27.90;10.20;;;;;;;-2.51;72.39;99652.14;106179;1274;99326;-71
2022/01/23 03:00:15;;;;;;;26.10;9.80;;;;;;;-2.52;72.60;99656.49;106116;1274;112763;-71
2022/01/23 03:02:53;;;;;;;24.70;10.00;;;;;;;-2.52;72.64;99654.05;106202;1274;99303;-71
2022/01/23 03:10:34;;;;;;;32.00;10.00;;;;;;;-2.48;72.48;99664.96;106231;1274;99946;-71
2022/01/23 03:30:14;;;;;;;28.70;10.70;;;;;;;-2.48;72.62;99665.84;106184;1274;97296;-69
2022/01/23 03:32:46;;;;;;;28.00;9.80;;;;;;;-2.49;72.65;99670.88;105980;1273;108839;-70
2022/01/23 03:35:22;;;;;;;23.90;8.70;;;;;;;-2.51;72.69;99666.73;106168;1274;99148;-69
2022/01/23 03:37:50;;;;;;;24.40;8.00;;;;;;;-2.51;72.80;99664.65;106165;1274;99204;-69
2022/01/23 03:40:19;;;;;;;27.30;9.30;;;;;;;-2.52;72.51;99664.14;106099;1273;112732;-69
2022/01/23 03:42:55;;;;;;;28.90;8.70;;;;;;;-2.51;72.59;99666.72;106055;1272;99235;-72
2022/01/23 03:45:55;;;;;;;23.40;7.60;;;;;;;-2.51;72.52;99663.09;106021;1271;107456;-70
2022/01/23 03:50:55;;;;;;;24.20;8.50;;;;;;;-2.53;72.67;99672.13;106149;1271;99239;-70
2022/01/23 03:53:23;;;;;;;26.00;8.20;;;;;;;-2.53;72.59;99670.23;106140;1272;111971;-70
2022/01/23 03:55:53;;;;;;;26.80;8.10;;;;;;;-2.54;72.86;99672.66;106136;1274;99039;-72
2022/01/23 03:58:21;;;;;;;25.60;8.70;;;;;;;-2.55;72.92;99679.95;106030;1273;105407;-69
2022/01/23 04:00:49;;;;;;;28.20;9.50;;;;;;;-2.54;72.90;99682.91;106049;1271;99329;-70
2022/01/23 04:03:19;;;;;;;26.80;8.60;;;;;;;-2.52;73.02;99682.72;106060;1271;97938;-72
2022/01/23 04:05:50;;;;;;;29.10;9.70;;;;;;;-2.52;72.81;99685.66;106018;1271;112843;-71
2022/01/23 04:08:20;;;;;;;27.30;9.00;;;;;;;-2.52;72.89;99688.63;106105;1274;99197;-71
2022/01/23 04:10:49;;;;;;;26.70;8.70;;;;;;;-2.52;72.54;99691.40;106106;1272;107688;-70
2022/01/23 04:13:26;;;;;;;26.50;9.30;;;;;;;-2.52;72.75;99691.75;106100;1274;99216;-70
2022/01/23 04:45:48;;;;;;;22.60;7.30;;;;;;;-2.48;72.58;99711.70;106089;1274;112739;-72
2022/01/23 05:04:36;;;;;;;26.20;8.50;;;;;;;-2.58;72.68;99738.51;106066;1271;107570;-70
2022/01/23 05:07:07;;;;;;;23.60;7.90;;;;;;;-2.58;72.86;99744.41;106120;1274;99243;-71
2022/01/23 05:09:37;;;;;;;25.60;8.20;;;;;;;-2.59;72.83;99746.15;106173;1274;99319;-72
2022/01/23 05:12:11;;;;;;;28.10;8.60;;;;;;;-2.59;72.85;99747.90;106174;1273;112636;-71
2022/01/23 05:14:45;;;;;;;28.60;9.00;;;;;;;-2.59;72.76;99752.92;106118;1274;97719;-70
2022/01/23 05:17:16;;;;;;;26.00;8.20;;;;;;;-2.59;72.82;99753.45;106181;1274;106491;-70
2022/01/23 05:19:46;;;;;;;21.20;6.90;;;;;;;-2.59;72.68;99752.41;106141;1274;99173;-70
2022/01/23 05:27:46;;;;;;;33.40;9.70;;;;;;;-2.53;72.69;99756.02;106091;1274;99299;-71
2022/01/23 05:30:15;;;;;;;25.70;8.30;;;;;;;-2.52;72.59;99755.31;106148;1274;107708;-71
2022/01/23 05:32:44;;;;;;;24.60;8.30;;;;;;;-2.51;72.98;99760.00;106144;1271;99214;-67
2022/01/23 05:35:20;;;;;;;24.30;7.80;;;;;;;-2.50;72.94;99762.59;106048;1274;99118;-71
2022/01/23 05:37:50;;;;;;;22.80;7.50;;;;;;;-2.50;72.48;99760.52;106082;1273;112786;-68
2022/01/23 05:40:21;;;;;;;27.70;8.30;;;;;;;-2.50;72.75;99756.52;106174;1274;97157;-71
2022/01/23 05:42:50;;;;;;;24.80;8.50;;;;;;;-2.49;72.47;99755.98;106186;1271;107718;-71
2022/01/23 05:45:19;;;;;;;24.30;8.60;;;;;;;-2.47;72.67;99758.05;106132;1274;99195;-70
2022/01/23 05:47:47;;;;;;;21.20;7.60;;;;;;;-2.45;72.75;99763.95;106153;1271;99229;-72
2022/01/23 05:50:15;;;;;;;26.00;9.60;;;;;;;-2.43;72.72;99766.35;106053;1271;112313;-69
2022/01/23 05:52:43;;;;;;;23.10;8.40;;;;;;;-2.41;72.93;99767.54;106138;1274;99265;-69
2022/01/23 05:55:12;;;;;;;25.30;8.00;;;;;;;-2.39;72.67;99765.10;106089;1272;108681;-70
2022/01/23 05:57:41;;;;;;;25.20;9.50;;;;;;;-2.37;72.77;99769.27;106065;1274;99211;-71
2022/01/23 06:00:11;;;;;;;27.90;9.20;;;;;;;-2.37;72.54;99771.69;106155;1272;99211;-71
2022/01/23 06:02:39;;;;;;;24.10;8.00;;;;;;;-2.37;72.67;99774.30;106059;1274;112611;-70
2022/01/23 06:05:08;;;;;;;22.90;7.40;;;;;;;-2.37;72.65;99775.67;106134;1271;99782;-71
2022/01/23 06:07:36;;;;;;;26.70;9.30;;;;;;;-2.36;72.57;99780.88;106068;1271;107571;-71
2022/01/23 06:10:05;;;;;;;26.50;9.40;;;;;;;-2.37;73.00;99786.11;106116;1274;99251;-69
2022/01/23 06:12:33;;;;;;;23.20;7.30;;;;;;;-2.37;72.81;99779.33;106227;1274;97931;-70
2022/01/23 06:15:01;;;;;;;24.90;8.20;;;;;;;-2.37;72.88;99782.80;106174;1274;112870;-69
2022/01/23 06:17:29;;;;;;;24.00;7.80;;;;;;;-2.36;72.74;99784.19;106156;1274;99309;-71
2022/01/23 06:19:57;;;;;;;23.60;8.40;;;;;;;-2.34;72.57;99782.26;106120;1273;107645;-69
2022/01/23 06:22:25;;;;;;;27.10;9.70;;;;;;;-2.36;72.69;99783.31;106255;1274;99319;-70
2022/01/23 06:24:53;;;;;;;26.60;8.70;;;;;;;-2.38;72.63;99785.42;106191;1271;96524;-68
2022/01/23 06:27:22;;;;;;;27.00;10.30;;;;;;;-2.37;72.91;99785.59;106122;1271;113456;-70
2022/01/23 06:29:51;;;;;;;29.50;9.50;;;;;;;-2.36;72.90;99785.05;106158;1271;97678;-71
2022/01/23 06:32:24;;;;;;;26.50;10.40;;;;;;;-2.36;72.63;99788.70;106086;1274;107604;-70
2022/01/23 06:34:54;;;;;;;25.70;9.20;;;;;;;-2.36;73.02;99789.92;105950;1273;99317;-70
2022/01/23 06:37:22;;;;;;;24.20;8.10;;;;;;;-2.36;72.74;99793.21;105998;1271;99288;-69
2022/01/23 06:39:51;;;;;;;25.50;9.10;;;;;;;-2.34;72.85;99797.73;106037;1271;112314;-70
2022/01/23 06:42:18;;;;;;;24.40;8.30;;;;;;;-2.33;73.04;99796.84;106165;1271;99207;-70
2022/01/23 06:44:46;;;;;;;23.70;8.60;;;;;;;-2.33;72.88;99802.92;106101;1271;107863;-70
2022/01/23 06:47:14;;;;;;;25.00;8.80;;;;;;;-2.31;72.75;99807.42;106059;1271;99342;-71
2022/01/23 06:49:42;;;;;;;27.00;9.40;;;;;;;-2.30;72.70;99812.30;106139;1271;99211;-70
2022/01/23 06:52:10;;;;;;;28.70;9.10;;;;;;;-2.29;72.64;99824.09;106052;1271;112694;-70
2022/01/23 06:54:37;;;;;;;27.50;9.40;;;;;;;-2.26;72.74;99825.45;106029;1271;99220;-69
2022/01/23 06:57:05;;;;;;;29.70;10.60;;;;;;;-2.26;72.65;99821.97;106050;1274;107743;-68
2022/01/23 06:59:34;;;;;;;28.20;9.00;;;;;;;-2.27;72.60;99816.60;105995;1274;99224;-69
2022/01/23 07:02:05;;;;;;;27.10;10.40;;;;;;;-2.28;72.52;99818.35;106035;1271;96704;-70
2022/01/23 07:04:33;;;;;;;26.40;10.50;;;;;;;-2.30;72.97;99823.59;105994;1271;112712;-70
2022/01/23 07:07:02;;;;;;;27.10;9.40;;;;;;;-2.31;72.70;99821.16;106098;1271;99184;-69
2022/01/23 07:09:30;;;;;;;29.30;11.10;;;;;;;-2.34;72.93;99821.34;105841;1271;107604;-69
2022/01/23 07:11:57;;;;;;;29.90;10.40;;;;;;;-2.34;72.81;99822.20;106054;1271;99327;-69
2022/01/23 07:14:26;;;;;;;26.80;9.90;;;;;;;-2.33;72.74;99825.16;106148;1271;99212;-70
2022/01/23 07:16:54;;;;;;;26.80;10.10;;;;;;;-2.35;72.61;99834.55;106173;1270;112783;-70
2022/01/23 07:19:25;;;;;;;31.20;9.30;;;;;;;-2.37;72.76;99840.31;106095;1271;97761;-71
2022/01/23 07:21:53;;;;;;;26.10;9.60;;;;;;;-2.37;72.83;99846.56;106068;1271;108182;-71
2022/01/23 07:24:21;;;;;;;26.30;9.70;;;;;;;-2.36;72.83;99845.69;106062;1271;98844;-70
2022/01/23 07:26:50;;;;;;;30.70;11.20;;;;;;;-2.36;72.87;99843.42;106083;1271;99220;-70
2022/01/23 07:29:21;;;;;;;30.20;11.40;;;;;;;-2.38;72.89;99847.08;106101;1271;112975;-71
2022/01/23 07:31:57;;;;;;;26.10;10.60;;;;;;;-2.42;72.91;99848.50;106075;1272;99325;-70
2022/01/23 07:34:29;;;;;;;27.50;10.60;;;;;;;-2.45;72.73;99852.17;106153;1271;107839;-70
2022/01/23 07:36:57;;;;;;;28.50;10.20;;;;;;;-2.44;73.27;99844.69;106137;1271;99969;-70
2022/01/23 07:39:26;;;;;;;28.20;10.40;;;;;;;-2.46;73.01;99846.80;106210;1271;99307;-71
2022/01/23 07:41:54;;;;;;;31.50;10.70;;;;;;;-2.48;72.88;99856.20;106120;1271;112735;-71
2022/01/23 07:44:22;;;;;;;28.30;10.70;;;;;;;-2.49;73.12;99861.06;106196;1271;99207;-71
2022/01/23 07:46:52;;;;;;;29.90;10.50;;;;;;;-2.52;73.06;99867.69;106145;1271;106880;-71
2022/01/23 07:49:24;;;;;;;29.30;10.50;;;;;;;-2.54;73.18;99878.80;106111;1271;99827;-71
2022/01/23 07:51:52;;;;;;;31.90;11.30;;;;;;;-2.55;72.93;99885.23;106133;1271;99396;-70
2022/01/23 07:54:20;;;;;;;29.80;11.70;;;;;;;-2.56;73.11;99886.28;106118;1271;112460;-71
2022/01/23 07:56:49;;;;;;;26.00;10.70;;;;;;;-2.54;73.25;99890.96;106159;1271;99312;-71
2022/01/23 07:59:17;;;;;;;30.80;11.50;;;;;;;-2.53;73.35;99890.27;106153;1271;106695;-72
2022/01/23 08:01:45;;;;;;;31.00;11.20;;;;;;;-2.53;73.25;99896.86;106114;1271;99258;-70
2022/01/23 08:04:13;;;;;;;32.00;11.50;;;;;;;-2.53;73.16;99905.02;106232;1271;97178;-72
2022/01/23 08:06:46;;;;;;;27.80;10.80;;;;;;;-2.52;73.40;99905.55;106165;1271;112898;-69
2022/01/23 08:09:17;;;;;;;28.70;11.50;;;;;;;-2.52;73.08;99910.23;106152;1271;96693;-69
2022/01/23 08:11:45;;;;;;;30.60;12.00;;;;;;;-2.51;73.51;99909.70;106056;1273;107666;-70
2022/01/23 08:14:12;;;;;;;31.50;12.90;;;;;;;-2.51;73.46;99914.91;106047;1274;99803;-69
2022/01/23 08:16:40;;;;;;;29.80;11.40;;;;;;;-2.50;73.39;99912.13;106170;1272;96625;-73
2022/01/23 08:19:08;;;;;;;28.30;10.60;;;;;;;-2.49;73.34;99915.08;106208;1274;112738;-70
2022/01/23 08:21:36;;;;;;;32.30;10.90;;;;;;;-2.49;73.51;99912.31;106187;1271;99227;-72
2022/01/23 08:24:04;;;;;;;36.10;13.80;;;;;;;-2.48;73.35;99920.98;106135;1268;107708;-71
2022/01/23 08:26:32;;;;;;;34.00;13.30;;;;;;;-2.47;73.30;99930.89;106095;1271;99262;-69
2022/01/23 08:29:05;;;;;;;36.10;14.30;;;;;;;-2.43;73.43;99939.02;106214;1274;99246;-71
2022/01/23 08:31:32;;;;;;;35.10;13.50;;;;;;;-2.39;73.55;99950.63;106212;1271;112842;-71
2022/01/23 08:34:00;;;;;;;37.20;14.20;;;;;;;-2.38;73.35;99959.30;106231;1274;97189;-71
2022/01/23 08:36:29;;;;;;;34.70;12.00;;;;;;;-2.36;73.30;99958.09;106061;1271;106537;-69
2022/01/23 08:39:00;;;;;;;26.60;11.00;;;;;;;-2.31;73.23;99958.58;106111;1271;99197;-68
2022/01/23 08:41:49;;;;;;;29.00;12.50;;;;;;;-2.26;73.47;99958.02;106209;1274;99298;-69
2022/01/23 08:44:23;;;;;;;30.50;12.80;;;;;;;-2.21;73.56;99967.73;106210;1274;112724;-70
2022/01/23 08:46:55;;;;;;;26.10;11.30;;;;;;;-2.18;73.19;99963.89;106234;1274;98678;-69
2022/01/23 08:49:29;;;;;;;27.60;10.30;;;;;;;-2.16;73.24;99968.20;106219;1274;107768;-70
2022/01/23 08:52:01;;;;;;;26.70;9.80;;;;;;;-2.11;73.25;99965.58;106167;1274;99175;-71
2022/01/23 08:54:32;;;;;;;25.30;10.40;;;;;;;-2.05;73.24;99968.15;106203;1271;99208;-72
2022/01/23 08:57:00;;;;;;;29.60;12.30;;;;;;;-1.98;73.37;99966.36;106101;1273;112777;-72
2022/01/23 08:59:28;;;;;;;31.70;11.20;;;;;;;-1.88;73.58;99968.91;106064;1273;96569;-72
2022/01/23 09:01:56;;;;;;;27.80;11.30;;;;;;;-1.79;73.50;99970.57;106100;1274;107594;-71
2022/01/23 09:04:24;;;;;;;32.10;11.80;;;;;;;-1.70;73.47;99974.86;106154;1274;99328;-70
2022/01/23 09:06:51;;;;;;;29.40;10.20;;;;;;;-1.62;73.47;99977.74;106198;1274;99350;-70
2022/01/23 09:09:20;;;;;;;25.30;9.60;;;;;;;-1.56;73.32;99979.60;106088;1271;113452;-69
2022/01/23 09:12:00;;;;;;;29.10;12.60;;;;;;;-1.49;73.49;99980.42;106066;1273;99135;-70
2022/01/23 09:14:33;;;;;;;35.50;13.10;;;;;;;-1.43;73.64;99985.59;106188;1274;109219;-71
2022/01/23 09:17:06;;;;;;;35.30;15.00;;;;;;;-1.38;73.42;99984.66;106188;1274;99128;-67
2022/01/23 09:19:34;;;;;;;42.70;19.30;;;;;;;-1.32;73.34;99983.41;106133;1274;99329;-70
2022/01/23 09:22:05;;;;;;;48.00;19.80;;;;;;;-1.29;73.51;99984.93;106118;1274;113258;-70
2022/01/23 09:24:43;;;;;;;49.20;23.50;;;;;;;-1.24;73.60;99988.56;106154;1271;99223;-71
2022/01/23 09:27:18;;;;;;;42.20;19.00;;;;;;;-1.19;73.43;99987.29;106111;1274;107745;-72
2022/01/23 09:29:52;;;;;;;33.20;13.30;;;;;;;-1.18;73.33;99989.71;106098;1274;99302;-73
2022/01/23 09:32:25;;;;;;;35.40;13.30;;;;;;;-1.19;73.29;99995.27;106159;1274;100348;-70
2022/01/23 09:34:53;;;;;;;33.10;13.00;;;;;;;-1.17;73.38;99995.96;106170;1274;112619;-71
2022/01/23 09:37:21;;;;;;;41.10;17.20;;;;;;;-1.14;73.62;100001.34;106085;1274;99282;-68
2022/01/23 09:39:50;;;;;;;36.70;14.30;;;;;;;-1.11;73.36;99999.39;106121;1271;107750;-71
2022/01/23 09:42:27;;;;;;;38.10;15.00;;;;;;;-1.08;73.42;100009.64;106074;1274;97239;-72
2022/01/23 09:45:09;;;;;;;38.10;15.20;;;;;;;-1.09;73.48;100012.95;106153;1271;99192;-68
2022/01/23 09:47:40;;;;;;;39.00;15.90;;;;;;;-1.09;73.49;100012.42;106082;1274;113216;-68
2022/01/23 09:50:12;;;;;;;34.80;12.80;;;;;;;-1.12;73.36;100014.20;106075;1274;99314;-70
2022/01/23 09:52:44;;;;;;;25.90;9.80;;;;;;;-1.14;73.26;100019.27;106034;1274;107680;-70
2022/01/23 09:55:15;;;;;;;24.30;8.80;;;;;;;-1.18;73.34;100023.82;106143;1271;96684;-72
2022/01/23 09:57:48;;;;;;;25.00;9.80;;;;;;;-1.23;73.35;100028.39;106205;1274;97344;-71
2022/01/23 10:00:20;;;;;;;;;;;;;;;-1.25;73.29;100028.77;106144;1271;112782;-70
2022/01/23 10:02:50;;;;;;;26.20;11.60;;;;;;;-1.29;73.36;100033.85;106155;1274;99303;-71
2022/01/23 10:05:22;;;;;;;23.40;10.40;;;;;;;-1.30;73.45;100038.20;106144;1274;107659;-71
2022/01/23 10:07:56;;;;;;;23.80;8.50;;;;;;;-1.33;73.33;100044.66;106068;1274;99410;-71
2022/01/23 10:10:35;;;;;;;23.70;8.20;;;;;;;-1.33;73.42;100042.06;106163;1271;99329;-71
2022/01/23 10:13:10;;;;;;;22.30;8.40;;;;;;;-1.33;73.46;100044.33;106054;1274;112799;-70
2022/01/23 10:15:41;;;;;;;27.30;10.40;;;;;;;-1.35;73.18;100044.67;106131;1271;97379;-70
2022/01/23 10:18:09;;;;;;;26.10;9.80;;;;;;;-1.30;73.52;100052.30;106219;1274;107630;-71
2022/01/23 10:20:41;;;;;;;22.80;9.80;;;;;;;-1.28;73.30;100051.23;106045;1274;99346;-70
2022/01/23 10:23:10;;;;;;;22.60;9.30;;;;;;;-1.25;73.33;100052.60;106081;1273;98848;-72
2022/01/23 10:25:43;;;;;;;27.90;10.10;;;;;;;-1.22;73.34;100059.36;106211;1274;112574;-74
2022/01/23 10:28:18;;;;;;;26.70;10.80;;;;;;;-1.21;73.28;100063.88;106226;1274;99309;-70
2022/01/23 10:30:58;;;;;;;27.20;10.50;;;;;;;-1.17;73.40;100058.80;106184;1273;107963;-71
2022/01/23 10:33:31;;;;;;;28.40;10.80;;;;;;;-1.13;73.44;100057.73;106108;1274;99278;-70
2022/01/23 10:36:10;;;;;;;30.10;11.50;;;;;;;-1.08;73.20;100059.25;105994;1273;97622;-71
2022/01/23 10:38:45;;;;;;;28.10;10.20;;;;;;;-1.03;73.61;100057.13;105934;1274;112759;-72
2022/01/23 10:49:59;;;;;;;27.70;10.30;;;;;;;-0.88;73.47;100067.25;106142;1274;99206;-69
2022/01/23 10:52:34;;;;;;;26.40;10.00;;;;;;;-0.92;73.17;100067.45;105774;1274;112504;-69
2022/01/23 10:55:24;;;;;;;44.70;16.30;;;;;;;-0.93;73.19;100076.16;105976;1274;99258;-69
2022/01/23 10:58:02;;;;;;;27.10;9.90;;;;;;;-0.90;73.02;100082.59;106050;1274;107740;-69
2022/01/23 11:00:34;;;;;;;27.90;10.00;;;;;;;-0.90;73.20;100088.17;106002;1271;99307;-69
2022/01/23 11:03:17;;;;;;;26.80;10.00;;;;;;;-0.88;73.37;100089.36;106012;1274;99322;-72
2022/01/23 11:05:45;;;;;;;24.50;9.40;;;;;;;-0.88;73.38;100092.85;105919;1273;111445;-69
2022/01/23 11:08:24;;;;;;;22.70;9.10;;;;;;;-0.89;73.14;100094.60;106137;1274;99105;-68
2022/01/23 11:10:56;;;;;;;19.30;7.10;;;;;;;-0.92;73.32;100089.91;105976;1271;108270;-70
2022/01/23 11:19:30;;;;;;;22.20;8.30;;;;;;;-1.03;73.09;100098.04;106012;1274;112772;-70
2022/01/23 11:22:03;;;;;;;17.80;7.00;;;;;;;-1.04;73.01;100098.57;105955;1273;99300;-70
2022/01/23 11:24:42;;;;;;;20.50;7.70;;;;;;;-1.10;73.10;100110.09;106178;1274;106622;-67
2022/01/23 11:27:12;;;;;;;23.90;8.90;;;;;;;-1.15;72.89;100113.27;106113;1274;100346;-70
2022/01/23 11:30:06;;;;;;;22.10;9.20;;;;;;;-1.13;73.20;100112.73;106151;1274;99226;-66
2022/01/23 11:32:39;;;;;;;23.10;9.70;;;;;;;-1.08;73.16;100119.84;106097;1272;112684;-68
2022/01/23 11:35:15;;;;;;;25.20;10.50;;;;;;;-1.06;73.20;100119.29;105990;1274;98347;-70
2022/01/23 11:37:51;;;;;;;27.90;13.40;;;;;;;-1.02;73.25;100121.70;106023;1274;107710;-69
2022/01/23 11:53:57;;;;;;;30.70;12.60;;;;;;;-0.94;73.28;100117.63;106180;1274;99421;-70
2022/01/23 11:56:24;;;;;;;29.00;11.10;;;;;;;-0.97;73.17;100121.99;106121;1271;99270;-70
2022/01/23 11:58:56;;;;;;;29.50;12.20;;;;;;;-1.01;73.12;100125.17;106123;1274;115475;-71
2022/01/23 12:01:25;;;;;;;28.20;12.80;;;;;;;-1.06;73.04;100131.13;105981;1274;96577;-70
2022/01/23 12:04:06;;;;;;;26.50;11.20;;;;;;;-1.10;73.08;100133.42;106023;1274;107782;-69
2022/01/23 12:06:39;;;;;;;27.40;10.70;;;;;;;-1.14;72.89;100130.66;106010;1273;99248;-68
2022/01/23 12:09:10;;;;;;;21.50;8.60;;;;;;;-1.19;72.85;100133.84;106070;1274;99227;-71
2022/01/23 12:11:53;;;;;;;26.60;10.10;;;;;;;-1.25;72.97;100140.16;106048;1274;113404;-69
2022/01/23 12:17:17;;;;;;;30.40;12.40;;;;;;;-1.24;73.14;100138.23;106080;1274;108170;-71
2022/01/23 12:19:46;;;;;;;30.10;11.80;;;;;;;-1.23;72.84;100139.77;106079;1274;99319;-70
2022/01/23 12:22:29;;;;;;;30.30;12.40;;;;;;;-1.21;72.93;100139.23;106099;1273;99235;-70
2022/01/23 12:25:19;;;;;;;35.00;13.00;;;;;;;-1.18;73.05;100137.83;106073;1274;115449;-69
2022/01/23 12:28:08;;;;;;;33.20;15.00;;;;;;;-1.15;73.08;100137.63;106072;1271;96567;-71
2022/01/23 12:30:38;;;;;;;28.10;11.90;;;;;;;-1.07;73.26;100143.14;106004;1272;106599;-69
2022/01/23 12:33:16;;;;;;;25.70;10.30;;;;;;;-1.01;72.98;100139.27;106062;1271;99217;-70
2022/01/23 12:35:50;;;;;;;33.30;13.80;;;;;;;-0.98;73.03;100148.13;106155;1273;97248;-67
2022/01/23 12:38:26;;;;;;;31.70;11.80;;;;;;;-0.94;73.14;100145.65;106111;1273;111725;-69
2022/01/23 12:40:55;;;;;;;28.70;12.00;;;;;;;-0.88;73.20;100149.45;106077;1274;99224;-71
2022/01/23 12:43:26;;;;;;;27.90;11.60;;;;;;;-0.82;73.24;100154.27;106115;1271;107742;-70
2022/01/23 12:46:00;;;;;;;23.50;8.50;;;;;;;-0.81;72.97;100157.20;106049;1274;99214;-70
2022/01/23 12:48:32;;;;;;;19.10;7.40;;;;;;;-0.80;72.99;100163.81;106092;1274;99219;-69
2022/01/23 12:51:05;;;;;;;20.00;7.70;;;;;;;-0.80;73.02;100172.02;105993;1273;113414;-68
2022/01/23 12:53:45;;;;;;;21.70;7.70;;;;;;;-0.79;72.86;100178.09;106041;1274;99224;-69
2022/01/23 12:56:21;;;;;;;19.30;7.60;;;;;;;-0.76;72.81;100181.73;106049;1274;108347;-70
2022/01/23 12:58:59;;;;;;;19.40;6.30;;;;;;;-0.77;72.66;100180.17;106144;1274;99185;-71
2022/01/23 13:01:28;;;;;;;18.00;5.70;;;;;;;-0.80;72.55;100181.60;106137;1274;96611;-66
2022/01/23 13:04:05;;;;;;;17.50;5.70;;;;;;;-0.87;72.40;100179.56;106037;1274;113556;-67
2022/01/23 13:06:39;;;;;;;22.10;7.90;;;;;;;-0.93;72.43;100181.88;106044;1274;99230;-69
2022/01/23 13:09:30;;;;;;;19.40;7.20;;;;;;;-0.95;72.31;100180.66;106023;1274;106921;-69
2022/01/23 13:12:17;;;;;;;19.00;6.70;;;;;;;-0.98;72.55;100184.69;106037;1274;99202;-69
2022/01/23 13:34:34;;;;;;;;;;;;;;;-1.04;72.42;100204.24;106066;1271;99313;-69
2022/01/23 13:37:13;;;;;;;38.00;14.70;;;;;;;-1.01;72.51;100209.97;106070;1274;108785;-68
2022/01/23 13:40:03;;;;;;;39.00;15.40;;;;;;;-0.97;72.48;100210.79;105979;1272;97667;-70
2022/01/23 13:57:32;;;;;;;40.00;16.40;;;;;;;-0.74;72.44;100215.16;106044;1274;99322;-68
2022/01/23 14:00:12;;;;;;;33.30;12.20;;;;;;;-0.50;72.50;100224.38;106153;1274;113328;-68
2022/01/23 14:02:45;;;;;;;28.80;10.70;;;;;;;-0.40;72.29;100223.07;106193;1274;99243;-67
2022/01/23 14:05:17;;;;;;;24.20;9.20;;;;;;;-0.34;72.39;100228.59;106098;1274;108219;-69
2022/01/23 14:07:58;;;;;;;27.20;10.10;;;;;;;-0.27;72.40;100231.48;106163;1274;96647;-69
2022/01/23 14:10:34;;;;;;;24.20;8.60;;;;;;;-0.22;72.24;100239.98;106171;1274;99205;-70
2022/01/23 14:13:15;;;;;;;29.40;11.70;;;;;;;-0.19;72.23;100244.30;106076;1274;112974;-69
2022/01/23 14:15:50;;;;;;;29.20;10.70;;;;;;;-0.23;72.04;100248.38;105991;1274;96626;-70
2022/01/23 14:18:24;;;;;;;;;;;;;;;-0.30;72.02;100253.83;106040;1274;107837;-70
2022/01/23 14:20:58;;;;;;;;;;;;;;;-0.42;71.90;100252.55;106061;1271;97749;-70
2022/01/23 14:23:28;;;;;;;22.40;8.20;;;;;;;-0.56;71.94;100252.48;106030;1274;99147;-69
2022/01/23 14:26:00;;;;;;;21.20;8.10;;;;;;;-0.68;71.87;100256.06;105970;1273;112690;-70
2022/01/23 14:28:46;;;;;;;22.70;7.70;;;;;;;-0.81;71.20;100259.11;105953;1274;99203;-68
2022/01/23 14:31:20;;;;;;;24.00;8.50;;;;;;;-0.90;71.69;100265.61;106236;1271;107916;-70
2022/01/23 14:33:55;;;;;;;25.00;9.60;;;;;;;-0.96;71.47;100272.61;106060;1274;100026;-70
2022/01/23 14:36:33;;;;;;;21.20;7.10;;;;;;;-1.06;70.87;100280.69;106082;1271;99224;-70
2022/01/23 14:39:10;;;;;;;15.00;4.90;;;;;;;-1.17;71.09;100283.87;106127;1271;112804;-70
2022/01/23 14:41:46;;;;;;;14.30;5.00;;;;;;;-1.26;71.24;100290.02;106032;1274;99217;-71
2022/01/23 14:44:20;;;;;;;20.20;7.00;;;;;;;-1.29;71.22;100291.42;106052;1274;106882;-71
2022/01/23 14:46:56;;;;;;;21.90;8.00;;;;;;;-1.28;71.35;100298.55;106111;1274;99108;-70
2022/01/23 14:49:28;;;;;;;19.60;7.30;;;;;;;-1.28;71.25;100298.20;106168;1274;99945;-68
2022/01/23 14:52:02;;;;;;;18.10;6.60;;;;;;;-1.30;71.22;100300.64;106113;1274;113192;-70
2022/01/23 14:54:33;;;;;;;20.90;7.90;;;;;;;-1.34;71.59;100303.44;106142;1274;97524;-69
2022/01/23 14:57:06;;;;;;;22.30;9.40;;;;;;;-1.36;71.16;100306.40;106152;1274;109087;-68
2022/01/23 14:59:36;;;;;;;23.40;9.00;;;;;;;-1.36;71.25;100308.33;106185;1274;99243;-71
2022/01/23 15:02:06;;;;;;;140.60;63.10;;;;;;;-1.38;70.96;100313.02;106141;1273;99221;-70
2022/01/23 15:04:40;;;;;;;37.20;16.90;;;;;;;-1.39;71.18;100314.77;106215;1273;112924;-71
2022/01/23 15:07:14;;;;;;;26.80;10.70;;;;;;;-1.45;71.22;100312.70;106070;1274;99244;-69
2022/01/23 15:09:46;;;;;;;24.80;9.10;;;;;;;-1.50;70.94;100318.13;106022;1274;107763;-71
2022/01/23 15:12:17;;;;;;;25.20;11.40;;;;;;;-1.52;71.11;100318.64;106078;1274;99220;-71